createdAt,value
2024-03-02T00:00:00.225Z,76
2024-03-02T00:15:00.613Z,76
2024-03-02T00:30:00.605Z,76
2024-03-02T00:45:00.452Z,77
2024-03-02T01:00:00.254Z,77
2024-03-02T01:15:00.236Z,77
2024-03-02T01:30:00.298Z,77
2024-03-02T01:45:00.283Z,76
2024-03-02T02:00:00.260Z,76
2024-03-02T02:15:00.224Z,76
2024-03-02T02:30:00.239Z,76
2024-03-02T02:45:00.252Z,76
2024-03-02T03:00:00.516Z,76
2024-03-02T03:15:00.307Z,76
2024-03-02T03:30:00.304Z,76
2024-03-02T03:45:00.201Z,77
2024-03-02T04:00:00.317Z,77
2024-03-02T04:15:00.214Z,77
2024-03-02T04:30:00.265Z,77
2024-03-02T04:45:00.236Z,77
2024-03-02T05:00:00.331Z,77
2024-03-02T05:15:00.378Z,77
2024-03-02T05:30:00.269Z,80
2024-03-02T05:45:00.266Z,78
2024-03-02T06:00:00.309Z,78
2024-03-02T06:15:00.243Z,78
2024-03-02T06:30:00.309Z,78
2024-03-02T06:45:00.253Z,80
2024-03-02T07:00:00.438Z,80
2024-03-02T07:15:00.240Z,80
2024-03-02T07:30:00.246Z,80
2024-03-02T07:45:00.240Z,75
2024-03-02T08:00:00.228Z,75
2024-03-02T08:15:00.221Z,75
2024-03-02T08:30:00.267Z,75
2024-03-02T08:45:00.209Z,70
2024-03-02T09:00:00.248Z,70
2024-03-02T09:15:00.278Z,70
2024-03-02T09:30:00.377Z,70
2024-03-02T09:45:00.270Z,65
2024-03-02T10:00:00.309Z,65
2024-03-02T10:15:00.287Z,65
2024-03-02T10:30:00.301Z,65
2024-03-02T10:45:00.291Z,61
2024-03-02T11:00:00.240Z,61
2024-03-02T11:15:00.207Z,61
2024-03-02T11:30:00.404Z,61
2024-03-02T11:45:00.256Z,58
2024-03-02T12:00:00.229Z,58
2024-03-02T12:15:00.247Z,58
2024-03-02T12:30:00.362Z,58
2024-03-02T12:45:00.323Z,60
2024-03-02T13:00:00.312Z,60
2024-03-02T13:15:00.222Z,60
2024-03-02T13:30:00.384Z,60
2024-03-02T13:45:00.201Z,58
2024-03-02T14:00:00.259Z,58
2024-03-02T14:15:00.205Z,58
2024-03-02T14:30:00.258Z,58
2024-03-02T14:45:00.238Z,61
2024-03-02T15:00:00.583Z,61
2024-03-02T15:15:00.262Z,61
2024-03-02T15:30:00.380Z,61
2024-03-02T15:45:00.653Z,66
2024-03-02T16:00:00.283Z,66
2024-03-02T16:15:00.225Z,66
2024-03-02T16:30:00.348Z,66
2024-03-02T16:45:00.243Z,73
2024-03-02T17:00:00.361Z,73
2024-03-02T17:15:00.231Z,73
2024-03-02T17:30:00.333Z,73
2024-03-02T17:45:00.260Z,73
2024-03-02T18:00:00.304Z,73
2024-03-02T18:15:00.205Z,73
2024-03-02T18:30:00.474Z,73
2024-03-02T18:45:00.424Z,74
2024-03-02T19:00:00.290Z,74
2024-03-02T19:15:00.290Z,74
2024-03-02T19:30:00.226Z,74
2024-03-02T19:45:00.252Z,73
2024-03-02T20:00:00.259Z,73
2024-03-02T20:15:00.280Z,73
2024-03-02T20:30:00.414Z,73
2024-03-02T20:45:00.255Z,74
2024-03-02T21:00:00.337Z,74
2024-03-02T21:15:00.246Z,74
2024-03-02T21:30:00.356Z,74
2024-03-02T21:45:00.267Z,77
2024-03-02T23:00:00.274Z,79
2024-03-02T23:15:00.318Z,79
2024-03-02T23:30:00.286Z,79
2024-03-02T23:45:00.389Z,79
